sensor_id;sensor_type;location;lat;lon;timestamp;temperature;humidity
24522;DHT22;12680;57.804;12.190;2023-08-06T00:00:55;12.70;96.60
24522;DHT22;12680;57.804;12.190;2023-08-06T00:03:22;12.60;96.60
24522;DHT22;12680;57.804;12.190;2023-08-06T00:05:49;12.60;96.50
24522;DHT22;12680;57.804;12.190;2023-08-06T00:08:15;12.50;96.50
24522;DHT22;12680;57.804;12.190;2023-08-06T00:10:42;12.50;96.50
24522;DHT22;12680;57.804;12.190;2023-08-06T00:13:09;15.10;97.30
24522;DHT22;12680;57.804;12.190;2023-08-06T00:15:36;12.50;96.50
24522;DHT22;12680;57.804;12.190;2023-08-06T00:18:03;12.50;96.50
24522;DHT22;12680;57.804;12.190;2023-08-06T00:20:30;13.90;97.10
24522;DHT22;12680;57.804;12.190;2023-08-06T00:22:56;12.50;96.70
24522;DHT22;12680;57.804;12.190;2023-08-06T00:25:31;12.50;96.70
24522;DHT22;12680;57.804;12.190;2023-08-06T00:27:57;12.50;96.70
24522;DHT22;12680;57.804;12.190;2023-08-06T00:30:24;12.50;96.70
24522;DHT22;12680;57.804;12.190;2023-08-06T00:32:51;12.50;96.70
24522;DHT22;12680;57.804;12.190;2023-08-06T00:35:20;12.40;96.70
24522;DHT22;12680;57.804;12.190;2023-08-06T00:37:47;12.40;96.70
24522;DHT22;12680;57.804;12.190;2023-08-06T00:40:14;12.50;96.90
24522;DHT22;12680;57.804;12.190;2023-08-06T00:42:40;12.50;96.90
24522;DHT22;12680;57.804;12.190;2023-08-06T00:45:07;15.00;97.50
24522;DHT22;12680;57.804;12.190;2023-08-06T00:47:34;12.50;96.80
24522;DHT22;12680;57.804;12.190;2023-08-06T00:50:01;12.50;96.80
24522;DHT22;12680;57.804;12.190;2023-08-06T00:52:27;12.50;96.80
24522;DHT22;12680;57.804;12.190;2023-08-06T00:54:54;12.40;96.90
24522;DHT22;12680;57.804;12.190;2023-08-06T00:57:21;14.80;97.50
24522;DHT22;12680;57.804;12.190;2023-08-06T00:59:50;12.40;96.90
24522;DHT22;12680;57.804;12.190;2023-08-06T01:02:17;12.40;96.90
24522;DHT22;12680;57.804;12.190;2023-08-06T01:04:44;12.40;96.90
24522;DHT22;12680;57.804;12.190;2023-08-06T01:17:22;12.40;97.00
24522;DHT22;12680;57.804;12.190;2023-08-06T01:19:50;12.40;97.00
24522;DHT22;12680;57.804;12.190;2023-08-06T01:22:17;12.40;97.10
24522;DHT22;12680;57.804;12.190;2023-08-06T01:24:47;12.40;97.10
24522;DHT22;12680;57.804;12.190;2023-08-06T01:27:15;12.40;97.20
24522;DHT22;12680;57.804;12.190;2023-08-06T01:29:44;12.40;97.20
24522;DHT22;12680;57.804;12.190;2023-08-06T01:32:12;12.40;97.10
24522;DHT22;12680;57.804;12.190;2023-08-06T01:34:41;12.40;97.20
24522;DHT22;12680;57.804;12.190;2023-08-06T01:37:08;12.30;97.30
24522;DHT22;12680;57.804;12.190;2023-08-06T01:39:35;12.40;97.40
24522;DHT22;12680;57.804;12.190;2023-08-06T01:42:01;12.40;97.40
24522;DHT22;12680;57.804;12.190;2023-08-06T01:44:28;12.40;97.40
24522;DHT22;12680;57.804;12.190;2023-08-06T01:46:55;12.40;97.30
24522;DHT22;12680;57.804;12.190;2023-08-06T01:49:22;12.40;97.40
24522;DHT22;12680;57.804;12.190;2023-08-06T01:51:49;14.60;98.00
24522;DHT22;12680;57.804;12.190;2023-08-06T01:54:16;12.50;97.40
24522;DHT22;12680;57.804;12.190;2023-08-06T01:56:42;12.50;97.40
24522;DHT22;12680;57.804;12.190;2023-08-06T01:59:09;14.30;97.90
24522;DHT22;12680;57.804;12.190;2023-08-06T02:01:36;12.40;97.40
24522;DHT22;12680;57.804;12.190;2023-08-06T02:04:02;12.40;97.30
24522;DHT22;12680;57.804;12.190;2023-08-06T02:06:29;12.40;97.40
24522;DHT22;12680;57.804;12.190;2023-08-06T02:08:56;12.30;97.40
24522;DHT22;12680;57.804;12.190;2023-08-06T02:11:23;12.30;97.40
24522;DHT22;12680;57.804;12.190;2023-08-06T02:13:50;12.30;97.40
24522;DHT22;12680;57.804;12.190;2023-08-06T02:16:16;12.30;97.50
24522;DHT22;12680;57.804;12.190;2023-08-06T02:18:43;12.30;97.50
24522;DHT22;12680;57.804;12.190;2023-08-06T02:21:11;12.20;97.50
24522;DHT22;12680;57.804;12.190;2023-08-06T02:23:37;12.30;97.60
24522;DHT22;12680;57.804;12.190;2023-08-06T02:26:04;12.30;97.60
24522;DHT22;12680;57.804;12.190;2023-08-06T02:28:32;14.10;98.10
24522;DHT22;12680;57.804;12.190;2023-08-06T02:30:58;12.20;97.60
24522;DHT22;12680;57.804;12.190;2023-08-06T02:33:25;12.20;97.70
24522;DHT22;12680;57.804;12.190;2023-08-06T02:35:58;12.30;97.70
24522;DHT22;12680;57.804;12.190;2023-08-06T02:38:25;12.20;97.70
24522;DHT22;12680;57.804;12.190;2023-08-06T02:40:52;12.30;97.70
24522;DHT22;12680;57.804;12.190;2023-08-06T02:43:19;12.30;97.70
24522;DHT22;12680;57.804;12.190;2023-08-06T02:45:45;13.90;98.20
24522;DHT22;12680;57.804;12.190;2023-08-06T02:48:12;12.30;97.70
24522;DHT22;12680;57.804;12.190;2023-08-06T02:50:39;12.30;97.80
24522;DHT22;12680;57.804;12.190;2023-08-06T02:53:07;12.30;97.80
24522;DHT22;12680;57.804;12.190;2023-08-06T02:55:36;12.30;97.80
24522;DHT22;12680;57.804;12.190;2023-08-06T02:58:03;12.30;97.80
24522;DHT22;12680;57.804;12.190;2023-08-06T03:00:30;12.30;97.70
24522;DHT22;12680;57.804;12.190;2023-08-06T03:02:56;12.20;97.70
24522;DHT22;12680;57.804;12.190;2023-08-06T03:05:23;12.20;97.80
24522;DHT22;12680;57.804;12.190;2023-08-06T03:07:49;12.20;97.90
24522;DHT22;12680;57.804;12.190;2023-08-06T03:10:16;12.20;97.90
24522;DHT22;12680;57.804;12.190;2023-08-06T03:12:43;12.20;97.90
24522;DHT22;12680;57.804;12.190;2023-08-06T03:15:09;12.20;97.90
24522;DHT22;12680;57.804;12.190;2023-08-06T03:17:36;12.20;98.10
24522;DHT22;12680;57.804;12.190;2023-08-06T03:20:03;12.20;97.70
24522;DHT22;12680;57.804;12.190;2023-08-06T03:22:30;12.10;97.80
24522;DHT22;12680;57.804;12.190;2023-08-06T03:24:57;12.20;98.00
24522;DHT22;12680;57.804;12.190;2023-08-06T03:27:23;12.20;98.00
24522;DHT22;12680;57.804;12.190;2023-08-06T03:29:50;12.20;98.00
24522;DHT22;12680;57.804;12.190;2023-08-06T03:32:17;12.20;98.00
24522;DHT22;12680;57.804;12.190;2023-08-06T03:34:44;12.30;98.00
24522;DHT22;12680;57.804;12.190;2023-08-06T03:37:10;14.40;98.60
24522;DHT22;12680;57.804;12.190;2023-08-06T03:39:37;12.30;98.00
24522;DHT22;12680;57.804;12.190;2023-08-06T03:42:04;12.30;98.00
24522;DHT22;12680;57.804;12.190;2023-08-06T03:44:31;12.30;98.00
24522;DHT22;12680;57.804;12.190;2023-08-06T03:46:58;12.40;98.10
24522;DHT22;12680;57.804;12.190;2023-08-06T03:49:24;12.40;98.20
24522;DHT22;12680;57.804;12.190;2023-08-06T03:51:51;12.40;98.00
24522;DHT22;12680;57.804;12.190;2023-08-06T03:54:18;12.40;98.00
24522;DHT22;12680;57.804;12.190;2023-08-06T03:56:45;12.40;97.90
24522;DHT22;12680;57.804;12.190;2023-08-06T03:59:11;12.40;97.90
24522;DHT22;12680;57.804;12.190;2023-08-06T04:01:38;12.40;97.90
24522;DHT22;12680;57.804;12.190;2023-08-06T04:04:05;12.50;98.00
24522;DHT22;12680;57.804;12.190;2023-08-06T04:06:31;12.50;98.00
24522;DHT22;12680;57.804;12.190;2023-08-06T04:08:58;12.60;98.10
24522;DHT22;12680;57.804;12.190;2023-08-06T04:11:24;12.60;98.00
24522;DHT22;12680;57.804;12.190;2023-08-06T04:13:51;12.60;98.00
24522;DHT22;12680;57.804;12.190;2023-08-06T04:16:18;12.70;98.10
24522;DHT22;12680;57.804;12.190;2023-08-06T04:18:45;12.80;98.10
24522;DHT22;12680;57.804;12.190;2023-08-06T04:21:12;15.60;98.90
24522;DHT22;12680;57.804;12.190;2023-08-06T04:23:39;15.00;99.10
24522;DHT22;12680;57.804;12.190;2023-08-06T04:26:06;15.20;98.90
24522;DHT22;12680;57.804;12.190;2023-08-06T04:28:32;12.90;97.90
24522;DHT22;12680;57.804;12.190;2023-08-06T04:30:59;12.90;98.00
24522;DHT22;12680;57.804;12.190;2023-08-06T04:33:26;12.90;98.00
24522;DHT22;12680;57.804;12.190;2023-08-06T04:35:56;12.90;98.00
24522;DHT22;12680;57.804;12.190;2023-08-06T04:38:25;12.90;98.00
24522;DHT22;12680;57.804;12.190;2023-08-06T04:40:52;13.00;98.00
24522;DHT22;12680;57.804;12.190;2023-08-06T04:43:19;13.10;98.40
24522;DHT22;12680;57.804;12.190;2023-08-06T04:45:49;13.10;98.10
24522;DHT22;12680;57.804;12.190;2023-08-06T04:48:16;13.10;98.10
24522;DHT22;12680;57.804;12.190;2023-08-06T04:50:46;13.20;98.10
24522;DHT22;12680;57.804;12.190;2023-08-06T04:53:13;13.30;98.20
24522;DHT22;12680;57.804;12.190;2023-08-06T04:55:40;13.40;98.20
24522;DHT22;12680;57.804;12.190;2023-08-06T04:58:07;13.50;98.20
24522;DHT22;12680;57.804;12.190;2023-08-06T05:00:33;13.60;98.30
24522;DHT22;12680;57.804;12.190;2023-08-06T05:03:00;15.30;98.70
24522;DHT22;12680;57.804;12.190;2023-08-06T05:05:30;13.80;98.30
24522;DHT22;12680;57.804;12.190;2023-08-06T05:07:57;13.80;98.30
24522;DHT22;12680;57.804;12.190;2023-08-06T05:10:27;13.90;98.30
24522;DHT22;12680;57.804;12.190;2023-08-06T05:12:54;13.90;98.20
24522;DHT22;12680;57.804;12.190;2023-08-06T05:15:21;17.00;99.00
24522;DHT22;12680;57.804;12.190;2023-08-06T05:17:48;14.10;98.20
24522;DHT22;12680;57.804;12.190;2023-08-06T05:20:15;14.10;98.40
24522;DHT22;12680;57.804;12.190;2023-08-06T05:22:43;14.20;98.30
24522;DHT22;12680;57.804;12.190;2023-08-06T05:25:12;14.40;98.30
24522;DHT22;12680;57.804;12.190;2023-08-06T05:27:38;14.40;98.20
24522;DHT22;12680;57.804;12.190;2023-08-06T05:30:05;14.50;98.50
24522;DHT22;12680;57.804;12.190;2023-08-06T05:32:32;14.60;98.20
24522;DHT22;12680;57.804;12.190;2023-08-06T05:34:59;14.70;98.20
24522;DHT22;12680;57.804;12.190;2023-08-06T05:37:25;14.80;98.20
24522;DHT22;12680;57.804;12.190;2023-08-06T05:39:52;14.90;98.20
24522;DHT22;12680;57.804;12.190;2023-08-06T05:42:19;15.00;98.20
24522;DHT22;12680;57.804;12.190;2023-08-06T05:44:45;15.20;98.20
24522;DHT22;12680;57.804;12.190;2023-08-06T05:47:12;15.30;98.20
24522;DHT22;12680;57.804;12.190;2023-08-06T05:49:38;16.80;98.60
24522;DHT22;12680;57.804;12.190;2023-08-06T05:52:05;16.80;98.70
24522;DHT22;12680;57.804;12.190;2023-08-06T05:54:32;15.60;98.30
24522;DHT22;12680;57.804;12.190;2023-08-06T05:56:59;15.70;98.30
24522;DHT22;12680;57.804;12.190;2023-08-06T05:59:26;15.80;98.30
24522;DHT22;12680;57.804;12.190;2023-08-06T06:01:52;15.90;98.30
24522;DHT22;12680;57.804;12.190;2023-08-06T06:04:20;16.00;98.20
24522;DHT22;12680;57.804;12.190;2023-08-06T06:06:47;16.00;98.50
24522;DHT22;12680;57.804;12.190;2023-08-06T06:09:13;16.00;98.20
24522;DHT22;12680;57.804;12.190;2023-08-06T06:11:40;15.60;98.10
24522;DHT22;12680;57.804;12.190;2023-08-06T06:14:07;16.10;98.30
24522;DHT22;12680;57.804;12.190;2023-08-06T06:16:34;18.10;98.90
24522;DHT22;12680;57.804;12.190;2023-08-06T06:19:00;14.30;97.80
24522;DHT22;12680;57.804;12.190;2023-08-06T06:21:27;18.80;99.00
24522;DHT22;12680;57.804;12.190;2023-08-06T06:23:54;19.40;99.30
24522;DHT22;12680;57.804;12.190;2023-08-06T06:26:20;19.00;99.10
24522;DHT22;12680;57.804;12.190;2023-08-06T06:28:47;16.70;98.30
24522;DHT22;12680;57.804;12.190;2023-08-06T06:31:14;16.90;98.40
24522;DHT22;12680;57.804;12.190;2023-08-06T06:33:41;19.90;99.00
24522;DHT22;12680;57.804;12.190;2023-08-06T06:36:07;17.10;97.90
24522;DHT22;12680;57.804;12.190;2023-08-06T06:38:34;17.30;98.30
24522;DHT22;12680;57.804;12.190;2023-08-06T06:41:01;18.70;98.60
24522;DHT22;12680;57.804;12.190;2023-08-06T06:43:29;19.60;98.70
24522;DHT22;12680;57.804;12.190;2023-08-06T06:45:56;18.00;98.00
24522;DHT22;12680;57.804;12.190;2023-08-06T06:48:29;17.60;98.10
24522;DHT22;12680;57.804;12.190;2023-08-06T06:50:56;17.60;98.00
24522;DHT22;12680;57.804;12.190;2023-08-06T06:53:23;17.80;98.00
24522;DHT22;12680;57.804;12.190;2023-08-06T06:56:03;18.10;98.00
24522;DHT22;12680;57.804;12.190;2023-08-06T06:58:31;17.90;98.00
24522;DHT22;12680;57.804;12.190;2023-08-06T07:00:58;18.00;98.00
24522;DHT22;12680;57.804;12.190;2023-08-06T07:03:25;19.80;98.40
24522;DHT22;12680;57.804;12.190;2023-08-06T07:05:56;19.50;98.20
24522;DHT22;12680;57.804;12.190;2023-08-06T07:08:23;18.20;97.90
24522;DHT22;12680;57.804;12.190;2023-08-06T07:10:49;18.40;97.80
24522;DHT22;12680;57.804;12.190;2023-08-06T07:13:16;18.60;97.70
24522;DHT22;12680;57.804;12.190;2023-08-06T07:15:43;19.80;98.10
24522;DHT22;12680;57.804;12.190;2023-08-06T07:18:10;21.50;98.50
24522;DHT22;12680;57.804;12.190;2023-08-06T07:20:36;19.20;97.80
24522;DHT22;12680;57.804;12.190;2023-08-06T07:23:03;20.00;98.30
24522;DHT22;12680;57.804;12.190;2023-08-06T07:25:33;18.80;97.50
24522;DHT22;12680;57.804;12.190;2023-08-06T07:27:59;20.10;97.90
24522;DHT22;12680;57.804;12.190;2023-08-06T07:30:28;18.90;97.60
24522;DHT22;12680;57.804;12.190;2023-08-06T07:32:55;18.90;97.50
24522;DHT22;12680;57.804;12.190;2023-08-06T07:35:22;19.00;97.60
24522;DHT22;12680;57.804;12.190;2023-08-06T07:37:49;19.10;97.60
24522;DHT22;12680;57.804;12.190;2023-08-06T07:40:31;20.90;98.20
24522;DHT22;12680;57.804;12.190;2023-08-06T07:43:19;19.30;97.60
24522;DHT22;12680;57.804;12.190;2023-08-06T07:45:46;20.40;97.60
24522;DHT22;12680;57.804;12.190;2023-08-06T07:48:12;21.50;97.70
24522;DHT22;12680;57.804;12.190;2023-08-06T07:50:41;22.20;97.90
24522;DHT22;12680;57.804;12.190;2023-08-06T07:53:07;19.70;97.10
24522;DHT22;12680;57.804;12.190;2023-08-06T07:55:36;20.50;97.40
24522;DHT22;12680;57.804;12.190;2023-08-06T07:58:03;19.90;97.30
24522;DHT22;12680;57.804;12.190;2023-08-06T08:00:30;21.60;97.60
24522;DHT22;12680;57.804;12.190;2023-08-06T08:02:57;20.20;97.00
24522;DHT22;12680;57.804;12.190;2023-08-06T08:05:24;22.70;97.60
24522;DHT22;12680;57.804;12.190;2023-08-06T08:07:50;21.40;97.20
24522;DHT22;12680;57.804;12.190;2023-08-06T08:10:17;20.30;96.80
24522;DHT22;12680;57.804;12.190;2023-08-06T08:12:44;20.40;96.80
24522;DHT22;12680;57.804;12.190;2023-08-06T08:15:14;21.30;96.90
24522;DHT22;12680;57.804;12.190;2023-08-06T08:17:40;20.80;96.80
24522;DHT22;12680;57.804;12.190;2023-08-06T08:20:08;22.30;97.10
24522;DHT22;12680;57.804;12.190;2023-08-06T08:22:35;20.80;96.60
24522;DHT22;12680;57.804;12.190;2023-08-06T08:25:02;21.20;96.60
24522;DHT22;12680;57.804;12.190;2023-08-06T08:27:29;20.80;96.40
24522;DHT22;12680;57.804;12.190;2023-08-06T08:29:56;20.90;96.40
24522;DHT22;12680;57.804;12.190;2023-08-06T08:32:23;21.10;96.30
24522;DHT22;12680;57.804;12.190;2023-08-06T08:34:50;22.30;96.50
24522;DHT22;12680;57.804;12.190;2023-08-06T08:37:17;22.40;96.50
24522;DHT22;12680;57.804;12.190;2023-08-06T08:39:43;21.30;96.10
24522;DHT22;12680;57.804;12.190;2023-08-06T08:42:10;21.30;96.00
24522;DHT22;12680;57.804;12.190;2023-08-06T08:44:37;21.40;95.80
24522;DHT22;12680;57.804;12.190;2023-08-06T08:47:12;21.40;95.80
24522;DHT22;12680;57.804;12.190;2023-08-06T08:49:39;21.40;95.70
24522;DHT22;12680;57.804;12.190;2023-08-06T08:52:06;23.60;96.20
24522;DHT22;12680;57.804;12.190;2023-08-06T08:54:41;21.70;95.80
24522;DHT22;12680;57.804;12.190;2023-08-06T08:57:08;21.70;95.30
24522;DHT22;12680;57.804;12.190;2023-08-06T08:59:35;23.70;95.80
24522;DHT22;12680;57.804;12.190;2023-08-06T09:02:02;23.80;95.90
24522;DHT22;12680;57.804;12.190;2023-08-06T09:04:29;23.20;95.60
24522;DHT22;12680;57.804;12.190;2023-08-06T09:07:00;23.40;95.60
24522;DHT22;12680;57.804;12.190;2023-08-06T09:09:34;22.50;95.30
24522;DHT22;12680;57.804;12.190;2023-08-06T09:12:11;22.10;95.20
24522;DHT22;12680;57.804;12.190;2023-08-06T09:14:38;22.10;95.00
24522;DHT22;12680;57.804;12.190;2023-08-06T09:17:05;23.10;94.80
24522;DHT22;12680;57.804;12.190;2023-08-06T09:19:32;22.20;94.60
24522;DHT22;12680;57.804;12.190;2023-08-06T09:21:59;22.20;94.70
24522;DHT22;12680;57.804;12.190;2023-08-06T09:24:26;23.90;95.10
24522;DHT22;12680;57.804;12.190;2023-08-06T09:26:53;23.10;94.80
24522;DHT22;12680;57.804;12.190;2023-08-06T09:29:21;22.40;94.60
24522;DHT22;12680;57.804;12.190;2023-08-06T09:31:48;22.30;94.60
24522;DHT22;12680;57.804;12.190;2023-08-06T09:34:16;22.40;94.40
24522;DHT22;12680;57.804;12.190;2023-08-06T09:36:43;23.10;94.70
24522;DHT22;12680;57.804;12.190;2023-08-06T09:39:15;22.60;94.20
24522;DHT22;12680;57.804;12.190;2023-08-06T09:41:43;23.30;94.50
24522;DHT22;12680;57.804;12.190;2023-08-06T09:44:16;22.80;94.10
24522;DHT22;12680;57.804;12.190;2023-08-06T09:46:51;22.80;93.80
24522;DHT22;12680;57.804;12.190;2023-08-06T09:49:19;22.90;93.90
24522;DHT22;12680;57.804;12.190;2023-08-06T09:51:49;23.00;93.80
24522;DHT22;12680;57.804;12.190;2023-08-06T09:54:18;23.10;93.10
24522;DHT22;12680;57.804;12.190;2023-08-06T09:56:53;22.90;92.50
24522;DHT22;12680;57.804;12.190;2023-08-06T09:59:20;24.80;93.30
24522;DHT22;12680;57.804;12.190;2023-08-06T10:01:47;24.40;92.80
24522;DHT22;12680;57.804;12.190;2023-08-06T10:04:15;23.10;92.30
24522;DHT22;12680;57.804;12.190;2023-08-06T10:06:50;23.30;92.30
24522;DHT22;12680;57.804;12.190;2023-08-06T10:09:17;24.00;92.50
24522;DHT22;12680;57.804;12.190;2023-08-06T10:11:47;24.60;92.70
24522;DHT22;12680;57.804;12.190;2023-08-06T10:14:19;25.60;92.80
24522;DHT22;12680;57.804;12.190;2023-08-06T10:16:46;24.50;92.30
24522;DHT22;12680;57.804;12.190;2023-08-06T10:19:13;25.90;92.60
24522;DHT22;12680;57.804;12.190;2023-08-06T10:21:42;23.40;90.90
24522;DHT22;12680;57.804;12.190;2023-08-06T10:24:08;23.20;91.10
24522;DHT22;12680;57.804;12.190;2023-08-06T10:26:37;24.80;91.80
24522;DHT22;12680;57.804;12.190;2023-08-06T10:31:53;23.20;91.30
24522;DHT22;12680;57.804;12.190;2023-08-06T10:34:21;23.20;91.10
24522;DHT22;12680;57.804;12.190;2023-08-06T10:36:48;23.50;91.30
24522;DHT22;12680;57.804;12.190;2023-08-06T10:39:15;23.30;91.00
24522;DHT22;12680;57.804;12.190;2023-08-06T10:41:56;23.30;91.30
24522;DHT22;12680;57.804;12.190;2023-08-06T10:44:25;23.40;91.20
24522;DHT22;12680;57.804;12.190;2023-08-06T10:47:06;23.00;90.80
24522;DHT22;12680;57.804;12.190;2023-08-06T10:49:44;23.30;90.70
24522;DHT22;12680;57.804;12.190;2023-08-06T10:52:11;25.30;91.40
24522;DHT22;12680;57.804;12.190;2023-08-06T10:54:38;23.60;90.70
24522;DHT22;12680;57.804;12.190;2023-08-06T10:57:08;25.60;90.70
24522;DHT22;12680;57.804;12.190;2023-08-06T10:59:35;25.50;91.00
24522;DHT22;12680;57.804;12.190;2023-08-06T11:02:02;24.90;91.00
24522;DHT22;12680;57.804;12.190;2023-08-06T11:04:30;23.20;90.10
24522;DHT22;12680;57.804;12.190;2023-08-06T11:06:57;24.50;90.10
24522;DHT22;12680;57.804;12.190;2023-08-06T11:09:27;25.20;91.00
24522;DHT22;12680;57.804;12.190;2023-08-06T11:11:57;23.10;90.10
24522;DHT22;12680;57.804;12.190;2023-08-06T11:14:24;22.70;90.50
24522;DHT22;12680;57.804;12.190;2023-08-06T11:16:53;24.00;90.70
24522;DHT22;12680;57.804;12.190;2023-08-06T11:19:20;22.90;90.10
24522;DHT22;12680;57.804;12.190;2023-08-06T11:21:51;23.00;90.00
24522;DHT22;12680;57.804;12.190;2023-08-06T11:24:18;22.60;90.10
24522;DHT22;12680;57.804;12.190;2023-08-06T11:26:44;22.50;90.00
24522;DHT22;12680;57.804;12.190;2023-08-06T11:29:11;23.10;90.40
24522;DHT22;12680;57.804;12.190;2023-08-06T11:31:38;22.40;90.40
24522;DHT22;12680;57.804;12.190;2023-08-06T11:34:04;22.40;90.40
24522;DHT22;12680;57.804;12.190;2023-08-06T11:36:36;22.40;90.50
24522;DHT22;12680;57.804;12.190;2023-08-06T11:39:03;22.30;90.60
24522;DHT22;12680;57.804;12.190;2023-08-06T11:41:32;22.30;90.60
24522;DHT22;12680;57.804;12.190;2023-08-06T11:43:59;22.30;90.60
24522;DHT22;12680;57.804;12.190;2023-08-06T11:46:26;22.10;90.40
24522;DHT22;12680;57.804;12.190;2023-08-06T11:48:54;24.10;91.50
24522;DHT22;12680;57.804;12.190;2023-08-06T11:51:24;24.50;91.40
24522;DHT22;12680;57.804;12.190;2023-08-06T11:53:56;22.00;90.60
24522;DHT22;12680;57.804;12.190;2023-08-06T11:56:24;21.90;90.60
24522;DHT22;12680;57.804;12.190;2023-08-06T11:58:51;22.00;90.90
24522;DHT22;12680;57.804;12.190;2023-08-06T12:01:18;21.80;90.80
24522;DHT22;12680;57.804;12.190;2023-08-06T12:03:45;22.50;91.10
24522;DHT22;12680;57.804;12.190;2023-08-06T12:06:12;22.40;91.20
24522;DHT22;12680;57.804;12.190;2023-08-06T12:08:39;21.90;91.20
24522;DHT22;12680;57.804;12.190;2023-08-06T12:11:05;23.30;91.70
24522;DHT22;12680;57.804;12.190;2023-08-06T12:13:32;23.50;91.70
24522;DHT22;12680;57.804;12.190;2023-08-06T12:15:59;23.90;91.30
24522;DHT22;12680;57.804;12.190;2023-08-06T12:18:26;23.60;91.40
24522;DHT22;12680;57.804;12.190;2023-08-06T12:20:52;23.10;91.20
24522;DHT22;12680;57.804;12.190;2023-08-06T12:23:19;22.10;90.80
24522;DHT22;12680;57.804;12.190;2023-08-06T12:25:46;24.10;91.40
24522;DHT22;12680;57.804;12.190;2023-08-06T12:28:12;22.30;91.00
24522;DHT22;12680;57.804;12.190;2023-08-06T12:30:39;21.90;91.00
24522;DHT22;12680;57.804;12.190;2023-08-06T12:33:09;21.90;91.10
24522;DHT22;12680;57.804;12.190;2023-08-06T12:35:36;22.00;91.10
24522;DHT22;12680;57.804;12.190;2023-08-06T12:38:04;24.30;91.70
24522;DHT22;12680;57.804;12.190;2023-08-06T12:40:31;22.60;91.10
24522;DHT22;12680;57.804;12.190;2023-08-06T12:43:04;22.90;91.00
24522;DHT22;12680;57.804;12.190;2023-08-06T12:45:30;21.90;90.60
24522;DHT22;12680;57.804;12.190;2023-08-06T12:47:57;21.90;90.60
24522;DHT22;12680;57.804;12.190;2023-08-06T12:50:24;23.10;91.10
24522;DHT22;12680;57.804;12.190;2023-08-06T12:52:51;21.90;90.70
24522;DHT22;12680;57.804;12.190;2023-08-06T12:55:17;21.90;90.70
24522;DHT22;12680;57.804;12.190;2023-08-06T12:57:44;22.00;90.90
24522;DHT22;12680;57.804;12.190;2023-08-06T13:00:23;22.10;91.00
24522;DHT22;12680;57.804;12.190;2023-08-06T13:02:50;22.20;90.90
24522;DHT22;12680;57.804;12.190;2023-08-06T13:05:16;24.40;91.50
24522;DHT22;12680;57.804;12.190;2023-08-06T13:07:43;23.00;91.20
24522;DHT22;12680;57.804;12.190;2023-08-06T13:10:10;24.40;91.50
24522;DHT22;12680;57.804;12.190;2023-08-06T13:12:36;23.10;91.30
24522;DHT22;12680;57.804;12.190;2023-08-06T13:15:03;21.90;91.00
24522;DHT22;12680;57.804;12.190;2023-08-06T13:17:30;21.90;91.00
24522;DHT22;12680;57.804;12.190;2023-08-06T13:19:57;24.10;91.60
24522;DHT22;12680;57.804;12.190;2023-08-06T13:22:24;23.00;91.30
24522;DHT22;12680;57.804;12.190;2023-08-06T13:24:51;21.50;90.90
24522;DHT22;12680;57.804;12.190;2023-08-06T13:27:18;23.70;91.70
24522;DHT22;12680;57.804;12.190;2023-08-06T13:29:44;22.40;91.30
24522;DHT22;12680;57.804;12.190;2023-08-06T13:32:11;22.40;91.50
24522;DHT22;12680;57.804;12.190;2023-08-06T13:34:38;22.00;91.60
24522;DHT22;12680;57.804;12.190;2023-08-06T13:37:04;23.40;92.00
24522;DHT22;12680;57.804;12.190;2023-08-06T13:39:31;23.20;92.00
24522;DHT22;12680;57.804;12.190;2023-08-06T13:41:57;20.90;91.30
24522;DHT22;12680;57.804;12.190;2023-08-06T13:44:24;21.40;91.50
24522;DHT22;12680;57.804;12.190;2023-08-06T13:46:51;20.90;91.40
24522;DHT22;12680;57.804;12.190;2023-08-06T13:49:18;22.10;91.90
24522;DHT22;12680;57.804;12.190;2023-08-06T13:52:02;23.20;92.30
24522;DHT22;12680;57.804;12.190;2023-08-06T13:54:47;20.80;91.50
24522;DHT22;12680;57.804;12.190;2023-08-06T13:57:13;22.00;91.80
24522;DHT22;12680;57.804;12.190;2023-08-06T13:59:40;23.50;92.40
24522;DHT22;12680;57.804;12.190;2023-08-06T14:02:07;21.50;91.90
24522;DHT22;12680;57.804;12.190;2023-08-06T14:04:34;20.60;91.60
24522;DHT22;12680;57.804;12.190;2023-08-06T14:07:01;21.30;91.80
24522;DHT22;12680;57.804;12.190;2023-08-06T14:09:28;21.40;91.90
24522;DHT22;12680;57.804;12.190;2023-08-06T14:11:55;22.60;92.30
24522;DHT22;12680;57.804;12.190;2023-08-06T14:14:22;22.40;92.20
24522;DHT22;12680;57.804;12.190;2023-08-06T14:16:53;20.60;91.80
24522;DHT22;12680;57.804;12.190;2023-08-06T14:19:21;22.00;92.20
24522;DHT22;12680;57.804;12.190;2023-08-06T14:21:49;22.00;92.10
24522;DHT22;12680;57.804;12.190;2023-08-06T14:24:17;20.70;91.70
24522;DHT22;12680;57.804;12.190;2023-08-06T14:26:44;20.50;91.60
24522;DHT22;12680;57.804;12.190;2023-08-06T14:29:11;19.00;91.20
24522;DHT22;12680;57.804;12.190;2023-08-06T14:31:38;21.50;92.10
24522;DHT22;12680;57.804;12.190;2023-08-06T14:34:05;21.50;92.10
24522;DHT22;12680;57.804;12.190;2023-08-06T14:36:31;22.90;92.60
24522;DHT22;12680;57.804;12.190;2023-08-06T14:38:58;22.00;92.60
24522;DHT22;12680;57.804;12.190;2023-08-06T14:41:26;22.70;92.60
24522;DHT22;12680;57.804;12.190;2023-08-06T14:43:53;20.00;92.00
24522;DHT22;12680;57.804;12.190;2023-08-06T14:46:21;21.00;92.60
24522;DHT22;12680;57.804;12.190;2023-08-06T14:48:50;21.80;92.70
24522;DHT22;12680;57.804;12.190;2023-08-06T14:51:16;21.20;92.60
24522;DHT22;12680;57.804;12.190;2023-08-06T14:53:46;19.90;92.30
24522;DHT22;12680;57.804;12.190;2023-08-06T14:56:13;20.10;92.40
24522;DHT22;12680;57.804;12.190;2023-08-06T14:58:39;19.70;92.40
24522;DHT22;12680;57.804;12.190;2023-08-06T15:01:06;20.40;92.70
24522;DHT22;12680;57.804;12.190;2023-08-06T15:03:33;20.00;92.80
24522;DHT22;12680;57.804;12.190;2023-08-06T15:06:00;19.60;92.80
24522;DHT22;12680;57.804;12.190;2023-08-06T15:08:26;19.20;92.80
24522;DHT22;12680;57.804;12.190;2023-08-06T15:10:53;21.60;93.60
24522;DHT22;12680;57.804;12.190;2023-08-06T15:13:20;20.10;93.10
24522;DHT22;12680;57.804;12.190;2023-08-06T15:15:47;19.00;92.90
24522;DHT22;12680;57.804;12.190;2023-08-06T15:18:14;19.10;93.00
24522;DHT22;12680;57.804;12.190;2023-08-06T15:20:41;20.70;93.50
24522;DHT22;12680;57.804;12.190;2023-08-06T15:23:08;19.20;93.20
24522;DHT22;12680;57.804;12.190;2023-08-06T15:25:35;19.70;93.50
24522;DHT22;12680;57.804;12.190;2023-08-06T15:28:02;18.40;93.10
24522;DHT22;12680;57.804;12.190;2023-08-06T15:30:29;18.30;93.20